Time;durP1;ratioP1;P1;durP2;ratioP2;P2;SDS_P1;SDS_P2;PMS_P1;PMS_P2;Temp;Humidity;BMP_temperature;BMP_pressure;BME280_temperature;BME280_humidity;BME280_pressure;Samples;Min_cycle;Max_cycle;Signal;HPM_P1;HPM_P2
2022/05/20 00:02:09;;;;;;;12.27;10.98;;;15.80;99.90;;;;;;5134741;27;20259;-76
2022/05/20 00:04:37;;;;;;;13.38;11.98;;;15.80;99.90;;;;;;5134820;27;20199;-76
2022/05/20 00:07:04;;;;;;;15.48;13.98;;;15.80;99.90;;;;;;5134611;27;20199;-77
2022/05/20 00:09:31;;;;;;;20.67;17.25;;;15.70;99.90;;;;;;5134515;27;20202;-76
2022/05/20 00:11:58;;;;;;;25.00;22.33;;;15.80;99.90;;;;;;5134554;27;20595;-76
2022/05/20 00:14:24;;;;;;;24.38;21.02;;;15.70;99.90;;;;;;5134501;27;20647;-76
2022/05/20 00:16:51;;;;;;;25.87;22.63;;;15.80;99.90;;;;;;5144339;27;20179;-75
2022/05/20 00:19:18;;;;;;;29.27;26.00;;;15.80;99.90;;;;;;5149600;27;20222;-76
2022/05/20 00:21:46;;;;;;;31.90;28.60;;;15.70;99.90;;;;;;5134574;27;20240;-76
2022/05/20 00:24:13;;;;;;;32.70;29.27;;;15.70;99.90;;;;;;5134800;27;20195;-77
2022/05/20 00:26:38;;;;;;;31.17;27.27;;;15.70;99.90;;;;;;5134288;27;20612;-76
2022/05/20 00:29:05;;;;;;;31.17;28.05;;;15.80;99.90;;;;;;5134610;27;20202;-76
2022/05/20 00:31:32;;;;;;;31.43;28.10;;;15.70;99.90;;;;;;5134456;27;20203;-77
2022/05/20 00:33:58;;;;;;;30.73;27.57;;;15.60;99.90;;;;;;5143292;27;20195;-75
2022/05/20 00:36:25;;;;;;;27.13;24.23;;;15.70;99.90;;;;;;5138111;27;20198;-77
2022/05/20 00:38:53;;;;;;;24.20;21.67;;;15.70;99.90;;;;;;5139720;27;20681;-75
2022/05/20 00:41:19;;;;;;;27.35;21.00;;;15.70;99.90;;;;;;5152967;27;20198;-75
2022/05/20 00:43:48;;;;;;;22.45;19.27;;;15.70;99.90;;;;;;5149588;27;20195;-75
2022/05/20 00:46:17;;;;;;;22.67;19.40;;;15.70;99.90;;;;;;5135474;27;20191;-75
2022/05/20 00:48:44;;;;;;;20.40;18.20;;;15.70;99.90;;;;;;5135310;27;20531;-74
2022/05/20 00:51:16;;;;;;;22.13;18.67;;;15.70;99.90;;;;;;5134834;27;20199;-75
2022/05/20 00:53:56;;;;;;;22.30;15.43;;;15.70;99.90;;;;;;5134660;27;20650;-74
2022/05/20 00:56:28;;;;;;;16.17;14.27;;;15.70;99.90;;;;;;5134709;27;20650;-75
2022/05/20 00:58:57;;;;;;;19.10;15.53;;;15.60;99.90;;;;;;5133950;27;20313;-75
2022/05/20 01:01:23;;;;;;;17.50;15.70;;;15.60;99.90;;;;;;5133816;27;20306;-75
2022/05/20 01:03:54;;;;;;;18.23;15.53;;;15.60;99.90;;;;;;5133824;27;20255;-75
2022/05/20 01:06:20;;;;;;;18.73;16.73;;;15.60;99.90;;;;;;5133781;27;20203;-75
2022/05/20 01:08:47;;;;;;;21.07;17.37;;;15.60;99.90;;;;;;5133855;28;20259;-75
2022/05/20 01:11:15;;;;;;;14.10;12.60;;;15.60;99.90;;;;;;5133842;28;20244;-75
2022/05/20 01:13:44;;;;;;;15.90;13.50;;;15.50;99.90;;;;;;5133838;28;20239;-75
2022/05/20 01:16:11;;;;;;;13.03;11.73;;;15.50;99.90;;;;;;5133977;28;20202;-75
2022/05/20 01:18:41;;;;;;;11.87;10.67;;;15.50;99.90;;;;;;5133518;28;20646;-75
2022/05/20 01:21:08;;;;;;;16.40;10.93;;;15.50;99.90;;;;;;5133858;28;20194;-74
2022/05/20 01:23:37;;;;;;;12.30;10.47;;;15.50;99.90;;;;;;5133839;28;20252;-74
2022/05/20 01:26:05;;;;;;;11.50;10.40;;;15.50;99.90;;;;;;5133454;28;20650;-75
2022/05/20 01:28:33;;;;;;;16.60;9.40;;;15.50;99.90;;;;;;5133588;28;20198;-75
2022/05/20 01:31:02;;;;;;;12.13;9.87;;;15.50;99.90;;;;;;5137616;27;20251;-75
2022/05/20 01:33:31;;;;;;;12.97;10.33;;;15.60;99.90;;;;;;5137724;27;20241;-75
2022/05/20 01:35:59;;;;;;;12.02;9.38;;;15.60;99.90;;;;;;5137871;27;20244;-75
2022/05/20 01:38:26;;;;;;;12.17;10.27;;;15.50;99.90;;;;;;5137660;27;20674;-75
2022/05/20 01:40:59;;;;;;;11.50;10.30;;;15.40;99.90;;;;;;5137646;27;20194;-75
2022/05/20 01:43:52;;;;;;;11.30;10.10;;;15.50;99.90;;;;;;5137639;27;20202;-74
2022/05/20 01:46:27;;;;;;;13.17;10.33;;;15.50;99.90;;;;;;5133843;27;20198;-75
2022/05/20 01:49:04;;;;;;;19.37;12.43;;;15.60;99.90;;;;;;5137594;27;20260;-75
2022/05/20 01:51:38;;;;;;;15.00;12.40;;;15.40;99.90;;;;;;5137523;27;20206;-75
2022/05/20 01:54:10;;;;;;;13.30;11.90;;;15.40;99.90;;;;;;5137263;27;20611;-75
2022/05/20 01:56:43;;;;;;;12.53;11.33;;;15.40;99.90;;;;;;5137580;27;20255;-75
2022/05/20 01:59:15;;;;;;;14.20;12.70;;;15.40;99.90;;;;;;5137330;27;20219;-74
2022/05/20 02:01:51;;;;;;;17.63;13.43;;;15.40;99.90;;;;;;5137206;27;20223;-75
2022/05/20 02:04:22;;;;;;;15.37;13.60;;;15.30;99.90;;;;;;5137205;27;20195;-75
2022/05/20 02:06:53;;;;;;;17.07;15.33;;;15.40;99.90;;;;;;5137072;27;20559;-75
2022/05/20 02:09:26;;;;;;;20.37;14.00;;;15.30;99.90;;;;;;5137199;27;20248;-75
2022/05/20 02:11:56;;;;;;;22.90;15.57;;;15.30;99.90;;;;;;5137072;27;20794;-74
2022/05/20 02:14:28;;;;;;;16.73;15.00;;;15.30;99.90;;;;;;5137204;27;20603;-75
2022/05/20 02:17:05;;;;;;;19.53;14.83;;;15.30;99.90;;;;;;5136836;27;20650;-75
2022/05/20 02:19:37;;;;;;;18.87;16.30;;;15.30;99.90;;;;;;5136754;27;20750;-75
2022/05/20 02:22:08;;;;;;;15.23;12.20;;;15.30;99.90;;;;;;5137146;27;20199;-74
2022/05/20 02:24:39;;;;;;;15.47;11.67;;;15.40;99.90;;;;;;5136682;27;20584;-74
2022/05/20 02:27:11;;;;;;;12.90;11.60;;;15.30;99.90;;;;;;5136734;27;20202;-75
2022/05/20 02:29:43;;;;;;;14.67;10.87;;;15.30;99.90;;;;;;5136693;27;20195;-74
2022/05/20 02:32:15;;;;;;;12.03;10.43;;;15.30;99.90;;;;;;5136622;27;20198;-74
2022/05/20 02:34:42;;;;;;;12.33;11.03;;;15.40;99.90;;;;;;5136510;27;20603;-74
2022/05/20 02:37:24;;;;;;;11.90;10.73;;;15.30;99.90;;;;;;5136426;27;20591;-75
2022/05/20 02:39:51;;;;;;;16.30;11.00;;;15.30;99.90;;;;;;5136374;27;20222;-74
2022/05/20 02:42:19;;;;;;;11.80;10.60;;;15.40;99.90;;;;;;5135682;27;20666;-74
2022/05/20 02:44:46;;;;;;;13.03;11.47;;;15.20;99.90;;;;;;5141459;27;20202;-74
2022/05/20 02:47:13;;;;;;;12.93;11.03;;;15.20;99.90;;;;;;5149416;27;20217;-74
2022/05/20 02:49:40;;;;;;;14.23;11.33;;;15.10;99.90;;;;;;5138330;27;20203;-75
2022/05/20 02:52:08;;;;;;;12.60;11.17;;;15.10;99.90;;;;;;5136357;27;20642;-75
2022/05/20 02:54:36;;;;;;;16.10;11.33;;;15.20;99.90;;;;;;5136110;27;20608;-75
2022/05/20 02:57:03;;;;;;;12.97;11.63;;;15.30;99.90;;;;;;5136138;27;20662;-74
2022/05/20 03:05:00;;;;;;;15.13;10.97;;;15.30;99.90;;;;;;5136019;27;20198;-75
2022/05/20 03:07:27;;;;;;;12.03;10.73;;;15.40;99.90;;;;;;5135908;27;20669;-74
2022/05/20 03:09:53;;;;;;;12.10;10.97;;;15.30;99.90;;;;;;5135844;27;20604;-74
2022/05/20 03:12:20;;;;;;;12.23;11.03;;;15.20;99.90;;;;;;5135943;27;20203;-74
2022/05/20 03:14:48;;;;;;;13.13;10.50;;;15.30;99.90;;;;;;5135707;27;20650;-74
2022/05/20 03:17:15;;;;;;;12.83;10.53;;;15.30;99.90;;;;;;5135714;27;20586;-75
2022/05/20 03:19:41;;;;;;;14.77;11.00;;;15.20;99.90;;;;;;5135363;27;20729;-74
2022/05/20 03:22:08;;;;;;;11.83;10.63;;;15.30;99.90;;;;;;5135791;27;20290;-75
2022/05/20 03:24:35;;;;;;;12.30;11.03;;;15.30;99.90;;;;;;5135518;27;20662;-75
2022/05/20 03:27:03;;;;;;;15.77;9.93;;;15.20;99.90;;;;;;5135656;27;20195;-74
2022/05/20 03:29:32;;;;;;;12.07;10.87;;;15.20;99.90;;;;;;5135582;27;20625;-74
2022/05/20 03:32:00;;;;;;;13.40;10.30;;;15.20;99.90;;;;;;5135513;27;20247;-75
2022/05/20 03:34:27;;;;;;;12.47;10.40;;;15.20;99.90;;;;;;5143082;27;20251;-74
2022/05/20 03:36:53;;;;;;;12.13;9.50;;;15.30;99.90;;;;;;5146660;27;20232;-75
2022/05/20 03:39:22;;;;;;;11.23;9.03;;;15.40;99.90;;;;;;5135517;27;20199;-75
2022/05/20 03:41:49;;;;;;;12.57;9.77;;;15.40;99.90;;;;;;5135450;27;20191;-75
2022/05/20 03:44:17;;;;;;;10.27;9.00;;;15.40;99.90;;;;;;5135210;27;20202;-75
2022/05/20 03:46:46;;;;;;;10.23;9.20;;;15.30;99.90;;;;;;5135660;27;20195;-75
2022/05/20 03:49:15;;;;;;;12.10;9.83;;;15.30;99.90;;;;;;5136288;27;20195;-75
2022/05/20 03:51:43;;;;;;;10.63;9.60;;;15.30;99.90;;;;;;5136465;27;20206;-77
2022/05/20 03:54:09;;;;;;;10.77;9.67;;;15.40;99.90;;;;;;5134784;27;20205;-77
2022/05/20 03:56:38;;;;;;;10.80;9.70;;;15.40;99.90;;;;;;5121908;27;20274;-77
2022/05/20 03:59:04;;;;;;;11.57;9.67;;;15.50;99.90;;;;;;5124587;27;20192;-78
2022/05/20 04:04:19;;;;;;;12.90;10.50;;;15.50;99.90;;;;;;5158126;27;20195;-78
2022/05/20 04:06:45;;;;;;;12.57;9.77;;;15.70;99.90;;;;;;5157052;27;20187;-78
2022/05/20 04:09:12;;;;;;;12.35;10.10;;;15.70;99.90;;;;;;5143446;27;20191;-78
2022/05/20 04:11:39;;;;;;;13.40;9.63;;;15.80;99.90;;;;;;5159048;27;20205;-78
2022/05/20 04:14:07;;;;;;;12.35;10.27;;;15.70;99.90;;;;;;5160886;27;20183;-77
2022/05/20 04:16:34;;;;;;;12.18;9.32;;;15.80;99.90;;;;;;5155472;27;20195;-78
2022/05/20 04:19:01;;;;;;;13.20;9.00;;;15.90;99.90;;;;;;5143738;27;20220;-79
2022/05/20 04:21:29;;;;;;;9.30;8.07;;;16.00;99.90;;;;;;5139765;27;20584;-79
2022/05/20 04:23:56;;;;;;;12.93;9.10;;;16.00;99.90;;;;;;5134334;27;20682;-78
2022/05/20 04:26:23;;;;;;;11.38;8.60;;;16.00;99.90;;;;;;5134145;27;20731;-79
2022/05/20 04:28:49;;;;;;;11.13;8.88;;;16.10;99.90;;;;;;5134350;27;20248;-79
2022/05/20 04:31:16;;;;;;;9.93;8.33;;;16.10;99.90;;;;;;5134207;27;20229;-80
2022/05/20 04:33:43;;;;;;;10.07;8.73;;;16.00;99.90;;;;;;5134851;27;20202;-79
2022/05/20 04:36:10;;;;;;;9.52;8.63;;;16.00;99.90;;;;;;5134751;27;20195;-79
2022/05/20 04:38:38;;;;;;;11.48;9.05;;;16.00;99.90;;;;;;5134151;27;20202;-79
2022/05/20 04:49:18;;;;;;;10.45;9.00;;;16.20;99.90;;;;;;5136801;27;20198;-85
2022/05/20 04:51:45;;;;;;;10.27;8.70;;;16.20;99.90;;;;;;5135863;27;20198;-86
2022/05/20 04:56:57;;;;;;;13.35;9.15;;;16.30;99.90;;;;;;5135045;27;20190;-84
2022/05/20 04:59:24;;;;;;;10.05;8.98;;;16.40;99.90;;;;;;5115701;27;20200;-77
2022/05/20 05:01:53;;;;;;;13.27;9.25;;;16.40;99.90;;;;;;5112961;28;20761;-76
2022/05/20 05:04:21;;;;;;;10.05;8.85;;;16.30;99.90;;;;;;5112873;28;20200;-76
2022/05/20 05:06:49;;;;;;;10.10;8.63;;;16.50;99.90;;;;;;5113072;28;20204;-77
2022/05/20 05:09:17;;;;;;;11.10;8.15;;;16.60;99.90;;;;;;5113507;28;20200;-75
2022/05/20 05:11:44;;;;;;;9.35;8.45;;;16.70;99.90;;;;;;5112987;28;20195;-75
2022/05/20 05:14:13;;;;;;;10.15;8.38;;;16.70;99.90;;;;;;5112748;28;20647;-77
2022/05/20 05:16:40;;;;;;;13.43;8.48;;;16.80;99.90;;;;;;5113277;28;20200;-76
2022/05/20 05:19:07;;;;;;;9.93;8.32;;;16.80;99.90;;;;;;5113185;28;20535;-76
2022/05/20 05:21:34;;;;;;;10.88;8.20;;;16.70;99.90;;;;;;5120985;28;20313;-76
2022/05/20 05:24:01;;;;;;;9.95;8.63;;;16.80;99.90;;;;;;5133360;28;20662;-76
2022/05/20 05:26:31;;;;;;;8.90;8.00;;;16.80;99.90;;;;;;5133684;28;20206;-76
2022/05/20 05:28:59;;;;;;;9.27;8.25;;;17.10;99.90;;;;;;5133972;28;20191;-76
2022/05/20 05:31:26;;;;;;;10.63;8.05;;;17.20;99.90;;;;;;5133895;28;20255;-76
2022/05/20 05:33:54;;;;;;;11.45;9.02;;;17.30;99.90;;;;;;5133702;28;20286;-76
2022/05/20 05:36:20;;;;;;;9.77;8.65;;;17.40;99.90;;;;;;5133902;28;20198;-77
2022/05/20 05:38:47;;;;;;;9.40;8.38;;;17.50;99.90;;;;;;5133407;28;20199;-76
2022/05/20 05:41:17;;;;;;;8.48;7.53;;;17.70;99.90;;;;;;5133388;28;20226;-76
2022/05/20 05:43:45;;;;;;;11.27;8.00;;;17.80;99.90;;;;;;5115776;28;20195;-76
2022/05/20 05:46:12;;;;;;;8.07;7.28;;;18.10;99.90;;;;;;5133120;28;20603;-75
2022/05/20 05:48:39;;;;;;;8.23;7.22;;;18.20;99.90;;;;;;5132835;28;20199;-76
2022/05/20 05:51:05;;;;;;;8.57;7.50;;;18.30;99.90;;;;;;5133414;28;20199;-76
2022/05/20 05:53:33;;;;;;;7.68;6.72;;;18.50;99.90;;;;;;5133219;28;20202;-76
2022/05/20 05:56:02;;;;;;;9.32;6.68;;;18.50;99.90;;;;;;5133507;28;20207;-76
2022/05/20 05:58:30;;;;;;;8.05;6.32;;;18.60;99.90;;;;;;5134093;28;20608;-76
2022/05/20 06:00:59;;;;;;;8.38;6.80;;;18.80;99.90;;;;;;5134011;28;20261;-75
2022/05/20 06:03:26;;;;;;;8.95;6.63;;;18.90;99.90;;;;;;5149406;28;20214;-76
2022/05/20 06:05:52;;;;;;;10.52;7.25;;;19.10;99.90;;;;;;5144836;28;20251;-76
2022/05/20 06:08:19;;;;;;;9.85;6.47;;;19.30;99.90;;;;;;5134660;28;20595;-77
2022/05/20 06:10:47;;;;;;;17.17;6.18;;;19.40;99.90;;;;;;5134632;28;20216;-76
2022/05/20 06:13:14;;;;;;;13.25;6.13;;;19.40;99.90;;;;;;5134173;28;20198;-76
2022/05/20 06:15:41;;;;;;;6.97;5.78;;;19.50;99.90;;;;;;5133873;27;20608;-76
2022/05/20 06:18:09;;;;;;;8.63;5.80;;;19.60;99.90;;;;;;5138115;27;20244;-76
2022/05/20 06:20:36;;;;;;;8.52;5.63;;;19.90;99.90;;;;;;5136794;27;20223;-76
2022/05/20 06:23:03;;;;;;;10.13;5.63;;;20.20;99.90;;;;;;5136671;27;20252;-76
2022/05/20 06:25:31;;;;;;;9.32;5.70;;;20.60;99.90;;;;;;5136848;27;20198;-76
2022/05/20 06:28:05;;;;;;;8.95;5.97;;;20.60;99.90;;;;;;5136894;27;20252;-76
2022/05/20 06:30:33;;;;;;;10.70;6.10;;;20.70;99.90;;;;;;5136565;27;20247;-75
2022/05/20 06:33:00;;;;;;;7.15;5.78;;;20.70;99.90;;;;;;5136621;27;20281;-76
2022/05/20 06:40:59;;;;;;;7.88;5.75;;;20.70;99.90;;;;;;5136629;27;20250;-76
2022/05/20 06:43:26;;;;;;;6.28;5.43;;;20.80;99.90;;;;;;5136402;27;20306;-76
2022/05/20 06:45:57;;;;;;;8.82;5.82;;;20.80;99.90;;;;;;5136258;27;20404;-76
2022/05/20 06:48:23;;;;;;;7.18;5.85;;;20.60;99.90;;;;;;5136524;27;20239;-75
2022/05/20 06:50:52;;;;;;;7.95;6.20;;;20.60;99.90;;;;;;5141493;27;20203;-74
2022/05/20 06:53:19;;;;;;;12.70;6.25;;;20.50;99.90;;;;;;5155842;27;20213;-75
2022/05/20 06:55:47;;;;;;;10.80;6.43;;;20.40;99.90;;;;;;5137913;27;20195;-75
2022/05/20 06:58:14;;;;;;;17.00;6.90;;;20.60;99.90;;;;;;5136289;27;20252;-75
2022/05/20 07:00:41;;;;;;;11.40;6.68;;;20.70;99.90;;;;;;5135783;27;20230;-76
2022/05/20 07:03:07;;;;;;;9.43;6.45;;;20.80;99.90;;;;;;5136379;27;20203;-74
2022/05/20 07:05:35;;;;;;;7.50;6.60;;;21.00;99.90;;;;;;5136096;27;20199;-74
2022/05/20 07:08:03;;;;;;;7.70;6.78;;;20.90;99.90;;;;;;5136423;27;20225;-75
2022/05/20 07:10:30;;;;;;;9.27;7.10;;;21.00;99.90;;;;;;5140063;27;20203;-75
2022/05/20 07:12:57;;;;;;;7.05;6.35;;;21.20;99.90;;;;;;5137513;27;20198;-75
2022/05/20 07:15:23;;;;;;;8.55;6.53;;;21.20;99.90;;;;;;5139707;27;20243;-76
2022/05/20 07:17:50;;;;;;;7.22;6.50;;;21.30;99.90;;;;;;5152789;27;20179;-74
2022/05/20 07:20:17;;;;;;;7.57;6.75;;;21.40;99.90;;;;;;5160992;27;20203;-75
2022/05/20 07:22:43;;;;;;;8.32;7.18;;;21.50;99.90;;;;;;5158642;27;20220;-75
2022/05/20 07:25:11;;;;;;;8.45;6.93;;;21.60;99.90;;;;;;5159861;27;20213;-75
2022/05/20 07:27:39;;;;;;;7.68;6.57;;;21.80;99.90;;;;;;5150536;27;20235;-77
2022/05/20 07:30:07;;;;;;;10.13;7.30;;;21.80;99.90;;;;;;5152760;27;20290;-75
2022/05/20 07:32:35;;;;;;;8.07;6.97;;;22.00;99.90;;;;;;5153491;27;20240;-74
2022/05/20 07:35:02;;;;;;;11.25;7.50;;;22.10;99.90;;;;;;5136985;27;20240;-76
2022/05/20 07:37:29;;;;;;;8.23;6.88;;;22.00;99.90;;;;;;5135904;27;20198;-75
2022/05/20 07:39:58;;;;;;;10.98;7.72;;;22.20;99.90;;;;;;5135474;27;20221;-76
2022/05/20 07:42:26;;;;;;;9.02;8.07;;;22.40;99.90;;;;;;5135462;27;20286;-75
2022/05/20 07:44:52;;;;;;;8.82;8.00;;;22.40;99.90;;;;;;5135410;27;20198;-76
2022/05/20 07:47:20;;;;;;;8.18;7.28;;;22.50;99.90;;;;;;5135481;27;20208;-77
2022/05/20 07:49:47;;;;;;;10.10;7.80;;;22.70;99.90;;;;;;5135314;27;20199;-76
2022/05/20 07:53:19;;;;;;;8.30;7.55;;;22.70;99.90;;;;;;5135167;27;20198;-75
2022/05/20 07:55:05;;;;;;;9.05;8.15;;;22.70;99.90;;;;;;5134816;27;20199;-76
2022/05/20 07:57:34;;;;;;;11.23;7.80;;;23.10;99.90;;;;;;5134938;27;20527;-76
2022/05/20 08:00:03;;;;;;;8.77;7.63;;;23.00;99.90;;;;;;5134985;27;20202;-76
2022/05/20 08:02:30;;;;;;;9.07;7.57;;;22.80;99.90;;;;;;5134804;27;20235;-76
2022/05/20 08:04:58;;;;;;;7.80;7.03;;;22.90;99.90;;;;;;5134876;27;20202;-76
2022/05/20 08:07:28;;;;;;;9.88;7.60;;;23.10;99.90;;;;;;5135155;27;20202;-76
2022/05/20 08:09:55;;;;;;;9.10;7.53;;;23.40;99.90;;;;;;5135159;27;20195;-76
2022/05/20 08:12:21;;;;;;;10.13;7.03;;;23.60;99.90;;;;;;5134775;27;20199;-76
2022/05/20 08:14:50;;;;;;;7.07;5.90;;;23.90;99.90;;;;;;5134692;27;20236;-77
2022/05/20 08:17:18;;;;;;;8.57;7.38;;;24.10;99.90;;;;;;5134679;27;20646;-76
2022/05/20 08:19:45;;;;;;;8.45;6.82;;;24.30;99.90;;;;;;5134766;27;20222;-77
2022/05/20 08:22:13;;;;;;;7.25;6.45;;;24.40;99.90;;;;;;5134212;27;20690;-77
2022/05/20 08:24:40;;;;;;;6.57;5.90;;;24.80;99.90;;;;;;5134455;27;20554;-76
2022/05/20 08:27:07;;;;;;;6.97;6.20;;;25.30;99.90;;;;;;5134480;27;20195;-75
2022/05/20 08:29:34;;;;;;;8.57;6.72;;;25.70;99.90;;;;;;5134473;27;20203;-76
2022/05/20 08:32:02;;;;;;;9.73;6.88;;;25.40;99.90;;;;;;5134297;27;20255;-76
2022/05/20 08:34:29;;;;;;;10.68;6.28;;;25.60;99.90;;;;;;5134482;27;20201;-76
2022/05/20 08:36:55;;;;;;;11.05;7.25;;;25.90;99.90;;;;;;5134386;27;20248;-76
2022/05/20 08:39:22;;;;;;;10.93;5.75;;;26.10;99.90;;;;;;5133965;27;20248;-76
2022/05/20 08:41:52;;;;;;;8.25;5.65;;;26.00;99.90;;;;;;5134123;27;20223;-75
2022/05/20 08:44:22;;;;;;;7.85;6.03;;;26.40;99.90;;;;;;5134205;27;20225;-76
2022/05/20 08:46:49;;;;;;;9.27;5.97;;;26.50;99.90;;;;;;5134028;27;20195;-77
2022/05/20 08:49:21;;;;;;;7.78;6.15;;;26.90;99.90;;;;;;5134251;27;20248;-75
2022/05/20 08:51:50;;;;;;;10.25;6.50;;;27.00;99.90;;;;;;5134249;27;20195;-75
2022/05/20 08:54:17;;;;;;;10.05;6.28;;;27.00;99.90;;;;;;5134083;27;20232;-76
2022/05/20 08:56:46;;;;;;;8.27;6.05;;;26.90;99.90;;;;;;5133599;27;20255;-75
2022/05/20 08:59:17;;;;;;;7.00;5.97;;;26.70;99.90;;;;;;5134011;27;20199;-76
2022/05/20 09:01:46;;;;;;;7.97;6.47;;;26.80;99.90;;;;;;5133493;27;20688;-76
2022/05/20 09:04:15;;;;;;;10.02;6.07;;;27.00;99.90;;;;;;5133860;27;20191;-76
2022/05/20 09:06:59;;;;;;;8.23;6.53;;;27.40;99.90;;;;;;5133655;27;20195;-76
2022/05/20 09:09:28;;;;;;;9.88;6.18;;;27.70;99.90;;;;;;5133481;27;20213;-76
2022/05/20 09:11:57;;;;;;;9.82;6.13;;;28.40;99.90;;;;;;5133845;28;20320;-76
2022/05/20 09:17:12;;;;;;;7.65;6.45;;;29.00;99.90;;;;;;5133584;28;20633;-76
2022/05/20 09:19:40;;;;;;;9.45;6.68;;;29.30;99.90;;;;;;5143878;28;20203;-76
2022/05/20 09:22:14;;;;;;;10.93;7.97;;;29.20;99.90;;;;;;5145590;28;20681;-76
2022/05/20 09:24:43;;;;;;;9.85;6.72;;;28.40;99.90;;;;;;5133864;28;20199;-76
2022/05/20 09:27:11;;;;;;;11.27;6.70;;;28.50;99.90;;;;;;5133632;28;20199;-77
2022/05/20 09:29:41;;;;;;;8.85;7.43;;;28.10;99.90;;;;;;5133640;28;20199;-77
2022/05/20 09:32:22;;;;;;;9.30;7.50;;;28.30;99.90;;;;;;5133506;28;20221;-76
2022/05/20 09:34:57;;;;;;;9.32;6.57;;;28.60;99.90;;;;;;5133618;28;20273;-76
2022/05/20 09:37:28;;;;;;;8.38;6.45;;;28.70;99.90;;;;;;5133606;28;20255;-76
2022/05/20 09:39:55;;;;;;;9.07;6.55;;;29.40;99.90;;;;;;5133418;28;20547;-76
2022/05/20 09:42:24;;;;;;;9.80;7.72;;;29.50;99.90;;;;;;5133255;28;20688;-76
2022/05/20 09:44:52;;;;;;;8.18;7.40;;;29.70;99.90;;;;;;5133289;28;20240;-76
2022/05/20 09:47:25;;;;;;;10.30;8.18;;;30.00;99.90;;;;;;5133293;28;20658;-76
2022/05/20 09:49:56;;;;;;;7.50;6.05;;;30.00;99.90;;;;;;5133822;27;20202;-76
2022/05/20 09:52:30;;;;;;;7.65;6.82;;;30.80;99.90;;;;;;5136292;27;20252;-76
2022/05/20 09:55:01;;;;;;;9.90;6.45;;;30.80;99.90;;;;;;5137308;27;20194;-76
2022/05/20 09:57:36;;;;;;;10.98;6.55;;;30.60;96.50;;;;;;5137159;27;20289;-75
2022/05/20 10:00:08;;;;;;;11.65;6.20;;;29.70;98.40;;;;;;5137188;27;20652;-76
2022/05/20 10:02:42;;;;;;;12.55;6.20;;;29.20;97.70;;;;;;5136848;27;20761;-76
2022/05/20 10:05:15;;;;;;;6.70;5.95;;;29.50;98.80;;;;;;5137208;27;20542;-76
2022/05/20 10:07:56;;;;;;;8.90;6.35;;;29.60;95.80;;;;;;5139865;27;20247;-76
2022/05/20 10:10:33;;;;;;;8.77;5.75;;;29.70;94.80;;;;;;5149506;27;20220;-76
2022/05/20 10:13:02;;;;;;;6.18;5.57;;;30.50;93.50;;;;;;5137392;27;20199;-76
2022/05/20 10:15:33;;;;;;;8.60;5.60;;;31.20;92.00;;;;;;5137199;27;20203;-76
2022/05/20 10:18:06;;;;;;;7.68;5.85;;;31.10;92.00;;;;;;5136960;27;20205;-77
2022/05/20 10:20:37;;;;;;;6.70;5.85;;;30.50;90.60;;;;;;5136812;27;20195;-76
2022/05/20 10:23:13;;;;;;;8.93;5.70;;;30.80;90.90;;;;;;5137032;27;20226;-77
2022/05/20 10:25:53;;;;;;;9.60;6.22;;;31.20;89.40;;;;;;5136663;27;20650;-75
2022/05/20 10:34:08;;;;;;;7.28;5.75;;;31.60;80.20;;;;;;5137762;27;20225;-75
2022/05/20 10:36:44;;;;;;;7.10;5.63;;;31.70;79.00;;;;;;5138594;27;20603;-76
2022/05/20 10:39:25;;;;;;;6.97;5.65;;;31.70;78.40;;;;;;5138866;27;20254;-76
2022/05/20 10:42:12;;;;;;;5.95;5.35;;;32.20;74.90;;;;;;5139756;27;20214;-76
2022/05/20 10:50:56;;;;;;;6.53;5.60;;;33.40;64.80;;;;;;5139663;27;20225;-75
2022/05/20 10:53:32;;;;;;;6.07;5.38;;;33.80;59.70;;;;;;5136138;27;20316;-76
2022/05/20 10:56:18;;;;;;;9.35;5.50;;;34.30;57.20;;;;;;5136236;27;20285;-76
2022/05/20 10:59:15;;;;;;;6.38;5.00;;;33.20;57.10;;;;;;5136342;27;20397;-77
2022/05/20 11:01:55;;;;;;;7.30;4.95;;;32.80;58.00;;;;;;5135221;27;20231;-77
2022/05/20 11:04:51;;;;;;;7.72;5.53;;;32.80;56.80;;;;;;5135996;27;20190;-77
2022/05/20 11:07:44;;;;;;;6.93;5.25;;;33.10;55.60;;;;;;5136187;27;20263;-77
2022/05/20 11:10:24;;;;;;;5.97;5.22;;;34.30;52.40;;;;;;5135673;27;20251;-77
2022/05/20 11:13:02;;;;;;;7.40;4.70;;;33.80;47.40;;;;;;5136138;27;20198;-77
2022/05/20 11:16:00;;;;;;;5.53;4.63;;;33.80;48.20;;;;;;5135860;27;20195;-77
2022/05/20 11:18:45;;;;;;;8.40;4.95;;;33.20;48.30;;;;;;5135803;27;20191;-77
2022/05/20 11:21:49;;;;;;;11.38;4.53;;;32.30;49.70;;;;;;5135544;27;20591;-77
2022/05/20 11:24:36;;;;;;;4.88;4.20;;;32.20;49.30;;;;;;5121786;27;20198;-77
2022/05/20 11:27:24;;;;;;;6.20;4.30;;;32.30;46.00;;;;;;5135695;27;20654;-77
2022/05/20 11:30:06;;;;;;;7.20;4.13;;;31.80;42.70;;;;;;5135328;27;20195;-76
2022/05/20 11:32:52;;;;;;;10.82;3.92;;;32.40;42.60;;;;;;5135476;27;20224;-76
2022/05/20 11:35:41;;;;;;;7.85;4.30;;;32.00;42.50;;;;;;5135473;27;20194;-76
2022/05/20 11:38:42;;;;;;;7.13;4.30;;;32.30;42.80;;;;;;5135424;27;20199;-80
2022/05/20 11:41:25;;;;;;;6.75;4.22;;;32.60;41.30;;;;;;5087099;27;20246;-81
2022/05/20 11:44:04;;;;;;;4.78;3.95;;;33.10;39.30;;;;;;5137189;27;20226;-80
2022/05/20 11:46:53;;;;;;;9.57;4.00;;;33.20;39.20;;;;;;5135553;27;20228;-76
2022/05/20 11:49:31;;;;;;;5.70;4.15;;;33.50;39.40;;;;;;5135087;27;20255;-76
2022/05/20 11:52:21;;;;;;;6.82;4.38;;;33.40;37.60;;;;;;5116859;27;20592;-76
2022/05/20 11:54:52;;;;;;;9.63;4.60;;;33.80;37.40;;;;;;5135171;27;20198;-76
2022/05/20 11:57:23;;;;;;;6.00;4.40;;;33.80;35.30;;;;;;5135087;27;20202;-77
2022/05/20 11:59:57;;;;;;;9.63;4.47;;;34.00;35.70;;;;;;5134762;27;20661;-76
2022/05/20 12:02:27;;;;;;;8.70;4.47;;;34.30;34.50;;;;;;5134526;27;20246;-75
2022/05/20 12:04:55;;;;;;;8.30;4.38;;;34.80;33.40;;;;;;5135097;27;20195;-75
2022/05/20 12:07:24;;;;;;;8.35;3.90;;;33.50;32.70;;;;;;5134722;27;20206;-75
2022/05/20 12:09:52;;;;;;;7.45;4.28;;;33.40;35.00;;;;;;5134843;27;20194;-76
2022/05/20 12:12:24;;;;;;;8.95;4.47;;;33.10;33.60;;;;;;5134662;27;20194;-75
2022/05/20 12:15:10;;;;;;;5.55;4.22;;;32.80;34.30;;;;;;5133598;27;20202;-75
2022/05/20 12:17:40;;;;;;;9.32;4.63;;;32.40;33.50;;;;;;5134603;27;20288;-75
2022/05/20 12:26:26;;;;;;;8.00;4.25;;;33.20;32.90;;;;;;5134442;27;20197;-75
2022/05/20 12:28:53;;;;;;;8.50;4.28;;;33.10;32.50;;;;;;5134287;27;20321;-75
2022/05/20 12:31:37;;;;;;;7.10;4.28;;;33.50;33.00;;;;;;5134502;27;20194;-75
2022/05/20 12:34:10;;;;;;;8.65;4.47;;;32.90;32.90;;;;;;5134477;27;20263;-75
2022/05/20 12:36:38;;;;;;;8.63;4.45;;;32.90;33.20;;;;;;5142095;27;20194;-74
2022/05/20 12:39:19;;;;;;;7.35;4.90;;;33.20;32.50;;;;;;5140446;27;20251;-75
2022/05/20 12:42:00;;;;;;;7.28;4.90;;;34.20;32.00;;;;;;5133831;27;20198;-75
2022/05/20 12:44:31;;;;;;;7.18;4.70;;;35.00;30.50;;;;;;5134161;27;20233;-75
2022/05/20 12:47:26;;;;;;;5.30;4.18;;;35.20;30.60;;;;;;5134019;27;20199;-75
2022/05/20 12:50:02;;;;;;;5.13;4.32;;;34.90;31.00;;;;;;5134173;27;20665;-75
2022/05/20 12:52:32;;;;;;;10.20;4.60;;;35.00;29.90;;;;;;5133951;27;20205;-75
2022/05/20 12:55:01;;;;;;;10.90;4.75;;;35.30;30.00;;;;;;5134085;27;20198;-75
2022/05/20 12:57:31;;;;;;;6.03;4.75;;;35.20;30.10;;;;;;5133833;27;20194;-75
2022/05/20 13:00:02;;;;;;;5.75;4.13;;;35.70;29.40;;;;;;5133995;27;20194;-76
2022/05/20 13:02:33;;;;;;;4.90;3.92;;;36.90;28.10;;;;;;5133786;27;20693;-76
2022/05/20 13:05:06;;;;;;;4.97;4.07;;;36.90;28.10;;;;;;5133805;27;20202;-75
2022/05/20 13:07:34;;;;;;;6.60;4.43;;;37.90;26.90;;;;;;5134003;27;20198;-75
2022/05/20 13:10:23;;;;;;;5.43;4.07;;;35.70;27.30;;;;;;5134246;27;20310;-75
2022/05/20 13:12:50;;;;;;;9.25;4.57;;;36.20;27.70;;;;;;5133628;27;20649;-75
2022/05/20 13:15:19;;;;;;;7.30;4.35;;;36.40;27.90;;;;;;5134393;28;20227;-74
2022/05/20 13:17:52;;;;;;;7.13;4.30;;;36.80;27.80;;;;;;5133768;28;20622;-73
2022/05/20 13:20:21;;;;;;;9.65;4.20;;;37.10;27.40;;;;;;5134025;28;20289;-72
2022/05/20 13:22:51;;;;;;;11.07;4.32;;;36.70;26.80;;;;;;5133532;28;20214;-72
2022/05/20 13:25:19;;;;;;;5.40;4.15;;;36.70;27.00;;;;;;5135510;27;20239;-73
2022/05/20 13:27:48;;;;;;;6.90;4.43;;;35.90;27.20;;;;;;5137290;27;20198;-75
2022/05/20 13:30:19;;;;;;;8.10;4.47;;;35.00;27.80;;;;;;5135397;27;20212;-75
2022/05/20 13:32:46;;;;;;;6.72;4.07;;;35.90;28.70;;;;;;5136232;27;20606;-75
2022/05/20 13:35:14;;;;;;;6.57;4.30;;;38.50;26.50;;;;;;5135670;27;20649;-75
2022/05/20 13:37:50;;;;;;;6.13;4.00;;;38.20;25.30;;;;;;5135503;27;20202;-75
2022/05/20 13:40:22;;;;;;;5.93;4.40;;;38.60;25.10;;;;;;5135644;27;20202;-75
2022/05/20 13:42:52;;;;;;;8.40;4.40;;;37.30;25.90;;;;;;5137938;27;20230;-75